sensor_id;sensor_type;location;lat;lon;timestamp;pressure;altitude;pressure_sealevel;temperature;humidity
11487;BME280;10510;47.942;9.442;2023-02-20T00:01:45;95677.63;;;5.63;100.00
11487;BME280;10510;47.942;9.442;2023-02-20T00:03:46;95677.63;;;5.63;100.00
11487;BME280;10510;47.942;9.442;2023-02-20T00:05:46;95678.59;;;5.62;100.00
11487;BME280;10510;47.942;9.442;2023-02-20T00:07:46;95680.22;;;5.63;100.00
11487;BME280;10510;47.942;9.442;2023-02-20T00:09:47;95675.84;;;5.64;100.00
11487;BME280;10510;47.942;9.442;2023-02-20T00:11:47;95667.41;;;5.62;100.00
11487;BME280;10510;47.942;9.442;2023-02-20T00:13:48;95675.28;;;5.60;100.00
11487;BME280;10510;47.942;9.442;2023-02-20T00:15:48;95673.53;;;5.61;100.00
11487;BME280;10510;47.942;9.442;2023-02-20T00:17:49;95682.97;;;5.62;100.00
11487;BME280;10510;47.942;9.442;2023-02-20T00:19:49;95683.91;;;5.61;100.00
11487;BME280;10510;47.942;9.442;2023-02-20T00:21:50;95676.13;;;5.61;100.00
11487;BME280;10510;47.942;9.442;2023-02-20T00:23:51;95678.72;;;5.61;100.00
11487;BME280;10510;47.942;9.442;2023-02-20T00:25:52;95680.59;;;5.59;100.00
11487;BME280;10510;47.942;9.442;2023-02-20T00:27:52;95674.59;;;5.58;100.00
11487;BME280;10510;47.942;9.442;2023-02-20T00:29:52;95672.16;;;5.57;100.00
11487;BME280;10510;47.942;9.442;2023-02-20T00:31:54;95672.00;;;5.58;100.00
11487;BME280;10510;47.942;9.442;2023-02-20T00:33:55;95668.59;;;5.58;100.00
11487;BME280;10510;47.942;9.442;2023-02-20T00:35:55;95677.34;;;5.57;100.00
11487;BME280;10510;47.942;9.442;2023-02-20T00:37:56;95673.91;;;5.56;100.00
11487;BME280;10510;47.942;9.442;2023-02-20T00:39:56;95667.06;;;5.55;100.00
11487;BME280;10510;47.942;9.442;2023-02-20T00:41:56;95670.63;;;5.54;100.00
11487;BME280;10510;47.942;9.442;2023-02-20T00:43:58;95674.84;;;5.55;100.00
11487;BME280;10510;47.942;9.442;2023-02-20T00:45:58;95674.19;;;5.53;100.00
11487;BME280;10510;47.942;9.442;2023-02-20T00:47:58;95676.78;;;5.53;100.00
11487;BME280;10510;47.942;9.442;2023-02-20T00:49:58;95673.22;;;5.54;100.00
11487;BME280;10510;47.942;9.442;2023-02-20T00:51:59;95681.00;;;5.54;100.00
11487;BME280;10510;47.942;9.442;2023-02-20T00:53:59;95691.38;;;5.54;100.00
11487;BME280;10510;47.942;9.442;2023-02-20T00:55:59;95687.00;;;5.55;100.00
11487;BME280;10510;47.942;9.442;2023-02-20T00:57:59;95682.78;;;5.54;100.00
11487;BME280;10510;47.942;9.442;2023-02-20T01:00:00;95683.59;;;5.54;100.00
11487;BME280;10510;47.942;9.442;2023-02-20T01:02:00;95681.97;;;5.53;100.00
11487;BME280;10510;47.942;9.442;2023-02-20T01:04:00;95678.66;;;5.51;100.00
11487;BME280;10510;47.942;9.442;2023-02-20T01:06:01;95686.56;;;5.50;100.00
11487;BME280;10510;47.942;9.442;2023-02-20T01:08:01;95684.91;;;5.49;100.00
11487;BME280;10510;47.942;9.442;2023-02-20T01:10:01;95686.69;;;5.48;100.00
11487;BME280;10510;47.942;9.442;2023-02-20T01:12:02;95685.03;;;5.47;100.00
11487;BME280;10510;47.942;9.442;2023-02-20T01:14:03;95682.44;;;5.47;100.00
11487;BME280;10510;47.942;9.442;2023-02-20T01:16:04;95679.84;;;5.47;100.00
11487;BME280;10510;47.942;9.442;2023-02-20T01:18:04;95666.88;;;5.47;100.00
11487;BME280;10510;47.942;9.442;2023-02-20T01:20:08;95673.03;;;5.46;100.00
11487;BME280;10510;47.942;9.442;2023-02-20T01:22:09;95672.06;;;5.47;100.00
11487;BME280;10510;47.942;9.442;2023-02-20T01:24:09;95673.84;;;5.46;100.00
11487;BME280;10510;47.942;9.442;2023-02-20T01:26:09;95685.88;;;5.47;100.00
11487;BME280;10510;47.942;9.442;2023-02-20T01:28:10;95686.69;;;5.48;100.00
11487;BME280;10510;47.942;9.442;2023-02-20T01:30:10;95690.91;;;5.49;100.00
11487;BME280;10510;47.942;9.442;2023-02-20T01:32:11;95692.59;;;5.50;100.00
11487;BME280;10510;47.942;9.442;2023-02-20T01:34:12;95701.19;;;5.51;100.00
11487;BME280;10510;47.942;9.442;2023-02-20T01:36:12;95695.19;;;5.50;100.00
11487;BME280;10510;47.942;9.442;2023-02-20T01:38:13;95697.78;;;5.50;100.00
11487;BME280;10510;47.942;9.442;2023-02-20T01:40:17;95702.00;;;5.51;100.00
11487;BME280;10510;47.942;9.442;2023-02-20T01:42:21;95705.53;;;5.50;100.00
11487;BME280;10510;47.942;9.442;2023-02-20T01:44:26;95694.31;;;5.50;100.00
11487;BME280;10510;47.942;9.442;2023-02-20T01:48:27;95696.91;;;5.50;100.00
11487;BME280;10510;47.942;9.442;2023-02-20T01:50:35;95691.72;;;5.50;100.00
11487;BME280;10510;47.942;9.442;2023-02-20T01:52:36;95687.41;;;5.50;100.00
11487;BME280;10510;47.942;9.442;2023-02-20T01:54:39;95688.22;;;5.51;100.00
11487;BME280;10510;47.942;9.442;2023-02-20T01:56:42;95689.84;;;5.52;100.00
11487;BME280;10510;47.942;9.442;2023-02-20T01:58:46;95689.03;;;5.51;100.00
11487;BME280;10510;47.942;9.442;2023-02-20T02:00:47;95680.28;;;5.52;100.00
11487;BME280;10510;47.942;9.442;2023-02-20T02:02:57;95674.28;;;5.52;100.00
11487;BME280;10510;47.942;9.442;2023-02-20T02:05:00;95681.25;;;5.51;100.00
11487;BME280;10510;47.942;9.442;2023-02-20T02:07:01;95674.28;;;5.52;100.00
11487;BME280;10510;47.942;9.442;2023-02-20T02:09:12;95679.47;;;5.52;100.00
11487;BME280;10510;47.942;9.442;2023-02-20T02:11:17;95679.47;;;5.52;100.00
11487;BME280;10510;47.942;9.442;2023-02-20T02:13:17;95674.28;;;5.52;100.00
11487;BME280;10510;47.942;9.442;2023-02-20T02:15:20;95671.69;;;5.52;100.00
11487;BME280;10510;47.942;9.442;2023-02-20T02:34:36;95671.25;;;5.46;100.00
11487;BME280;10510;47.942;9.442;2023-02-20T02:39:28;95679.03;;;5.46;100.00
11487;BME280;10510;47.942;9.442;2023-02-20T02:41:53;95682.56;;;5.45;100.00
11487;BME280;10510;47.942;9.442;2023-02-20T02:44:15;95663.59;;;5.45;100.00
11487;BME280;10510;47.942;9.442;2023-02-20T02:46:26;95667.03;;;5.45;100.00
11487;BME280;10510;47.942;9.442;2023-02-20T02:48:37;95655.94;;;5.43;100.00
11487;BME280;10510;47.942;9.442;2023-02-20T02:50:41;95648.41;;;5.40;100.00
11487;BME280;10510;47.942;9.442;2023-02-20T02:52:44;95649.38;;;5.39;100.00
11487;BME280;10510;47.942;9.442;2023-02-20T02:54:48;95641.84;;;5.36;100.00
11487;BME280;10510;47.942;9.442;2023-02-20T02:56:49;95643.88;;;5.33;100.00
11487;BME280;10510;47.942;9.442;2023-02-20T02:58:50;95643.28;;;5.29;100.00
11487;BME280;10510;47.942;9.442;2023-02-20T03:01:00;95637.69;;;5.24;100.00
11487;BME280;10510;47.942;9.442;2023-02-20T03:05:18;95641.03;;;5.15;100.00
11487;BME280;10510;47.942;9.442;2023-02-20T03:07:20;95636.47;;;5.07;100.00
11487;BME280;10510;47.942;9.442;2023-02-20T03:09:28;95643.94;;;5.00;100.00
11487;BME280;10510;47.942;9.442;2023-02-20T03:11:31;95634.06;;;4.94;100.00
11487;BME280;10510;47.942;9.442;2023-02-20T03:13:39;95630.31;;;4.87;100.00
11487;BME280;10510;47.942;9.442;2023-02-20T03:16:00;95636.94;;;4.80;100.00
11487;BME280;10510;47.942;9.442;2023-02-20T03:18:19;95627.19;;;4.72;100.00
11487;BME280;10510;47.942;9.442;2023-02-20T03:20:22;95629.31;;;4.67;100.00
11487;BME280;10510;47.942;9.442;2023-02-20T03:22:27;95629.69;;;4.63;100.00
11487;BME280;10510;47.942;9.442;2023-02-20T03:24:30;95633.72;;;4.55;100.00
11487;BME280;10510;47.942;9.442;2023-02-20T03:26:33;95629.84;;;4.50;100.00
11487;BME280;10510;47.942;9.442;2023-02-20T03:28:39;95632.81;;;4.45;100.00
11487;BME280;10510;47.942;9.442;2023-02-20T03:30:49;95626.34;;;4.40;100.00
11487;BME280;10510;47.942;9.442;2023-02-20T03:32:57;95630.25;;;4.34;100.00
11487;BME280;10510;47.942;9.442;2023-02-20T03:35:23;95628.13;;;4.28;100.00
11487;BME280;10510;47.942;9.442;2023-02-20T03:37:44;95634.50;;;4.24;100.00
11487;BME280;10510;47.942;9.442;2023-02-20T03:40:08;95636.63;;;4.19;100.00
11487;BME280;10510;47.942;9.442;2023-02-20T03:42:32;95640.50;;;4.13;100.00
11487;BME280;10510;47.942;9.442;2023-02-20T03:44:53;95639.13;;;4.09;100.00
11487;BME280;10510;47.942;9.442;2023-02-20T03:46:56;95631.00;;;4.02;100.00
11487;BME280;10510;47.942;9.442;2023-02-20T03:49:05;95630.53;;;3.97;100.00
11487;BME280;10510;47.942;9.442;2023-02-20T03:51:05;95633.47;;;3.93;100.00
11487;BME280;10510;47.942;9.442;2023-02-20T03:53:25;95639.84;;;3.89;100.00
11487;BME280;10510;47.942;9.442;2023-02-20T03:55:26;95643.72;;;3.83;100.00
11487;BME280;10510;47.942;9.442;2023-02-20T03:57:31;95640.66;;;3.78;100.00
11487;BME280;10510;47.942;9.442;2023-02-20T04:02:02;95631.25;;;3.66;100.00
11487;BME280;10510;47.942;9.442;2023-02-20T04:04:04;95629.13;;;3.59;100.00
11487;BME280;10510;47.942;9.442;2023-02-20T04:06:09;95626.06;;;3.54;100.00
11487;BME280;10510;47.942;9.442;2023-02-20T04:08:31;95629.13;;;3.48;100.00
11487;BME280;10510;47.942;9.442;2023-02-20T04:13:17;95630.72;;;3.38;100.00
11487;BME280;10510;47.942;9.442;2023-02-20T04:15:19;95621.56;;;3.34;100.00
11487;BME280;10510;47.942;9.442;2023-02-20T04:17:28;95620.25;;;3.28;100.00
11487;BME280;10510;47.942;9.442;2023-02-20T04:19:29;95623.22;;;3.24;100.00
11487;BME280;10510;47.942;9.442;2023-02-20T04:21:49;95620.97;;;3.19;100.00
11487;BME280;10510;47.942;9.442;2023-02-20T04:24:01;95628.22;;;3.14;100.00
11487;BME280;10510;47.942;9.442;2023-02-20T04:26:12;95630.31;;;3.09;100.00
11487;BME280;10510;47.942;9.442;2023-02-20T04:28:15;95630.66;;;3.04;100.00
11487;BME280;10510;47.942;9.442;2023-02-20T04:30:16;95623.97;;;3.02;100.00
11487;BME280;10510;47.942;9.442;2023-02-20T04:32:16;95625.13;;;2.98;100.00
11487;BME280;10510;47.942;9.442;2023-02-20T04:34:17;95627.94;;;2.94;100.00
11487;BME280;10510;47.942;9.442;2023-02-20T04:36:17;95629.81;;;2.92;100.00
11487;BME280;10510;47.942;9.442;2023-02-20T04:38:17;95635.19;;;2.89;100.00
11487;BME280;10510;47.942;9.442;2023-02-20T04:40:20;95626.84;;;2.86;100.00
11487;BME280;10510;47.942;9.442;2023-02-20T04:42:20;95626.13;;;2.84;100.00
11487;BME280;10510;47.942;9.442;2023-02-20T04:44:21;95618.63;;;2.81;100.00
11487;BME280;10510;47.942;9.442;2023-02-20T04:46:30;95624.81;;;2.78;100.00
11487;BME280;10510;47.942;9.442;2023-02-20T04:48:30;95613.78;;;2.76;100.00
11487;BME280;10510;47.942;9.442;2023-02-20T04:50:32;95617.53;;;2.72;100.00
11487;BME280;10510;47.942;9.442;2023-02-20T04:52:33;95622.91;;;2.69;100.00
11487;BME280;10510;47.942;9.442;2023-02-20T04:54:33;95618.78;;;2.66;100.00
11487;BME280;10510;47.942;9.442;2023-02-20T04:56:33;95630.16;;;2.64;100.00
11487;BME280;10510;47.942;9.442;2023-02-20T04:58:34;95633.78;;;2.61;100.00
11487;BME280;10510;47.942;9.442;2023-02-20T05:00:36;95628.75;;;2.60;100.00
11487;BME280;10510;47.942;9.442;2023-02-20T05:02:37;95622.75;;;2.59;100.00
11487;BME280;10510;47.942;9.442;2023-02-20T05:04:37;95621.09;;;2.58;100.00
11487;BME280;10510;47.942;9.442;2023-02-20T05:06:43;95622.13;;;2.56;100.00
11487;BME280;10510;47.942;9.442;2023-02-20T05:08:44;95625.56;;;2.56;100.00
11487;BME280;10510;47.942;9.442;2023-02-20T05:10:45;95626.59;;;2.54;100.00
11487;BME280;10510;47.942;9.442;2023-02-20T05:12:45;95632.59;;;2.54;100.00
11487;BME280;10510;47.942;9.442;2023-02-20T05:14:46;95636.81;;;2.55;100.00
11487;BME280;10510;47.942;9.442;2023-02-20T05:16:47;95641.97;;;2.55;100.00
11487;BME280;10510;47.942;9.442;2023-02-20T05:18:47;95648.88;;;2.55;100.00
11487;BME280;10510;47.942;9.442;2023-02-20T05:20:47;95654.28;;;2.52;100.00
11487;BME280;10510;47.942;9.442;2023-02-20T05:23:06;95648.28;;;2.51;100.00
11487;BME280;10510;47.942;9.442;2023-02-20T05:25:07;95645.94;;;2.48;100.00
11487;BME280;10510;47.942;9.442;2023-02-20T05:27:07;95645.22;;;2.46;100.00
11487;BME280;10510;47.942;9.442;2023-02-20T05:29:09;95644.59;;;2.42;100.00
11487;BME280;10510;47.942;9.442;2023-02-20T05:31:12;95641.44;;;2.39;100.00
11487;BME280;10510;47.942;9.442;2023-02-20T05:33:12;95641.88;;;2.33;100.00
11487;BME280;10510;47.942;9.442;2023-02-20T05:35:12;95629.41;;;2.26;100.00
11487;BME280;10510;47.942;9.442;2023-02-20T05:37:14;95628.06;;;2.21;100.00
11487;BME280;10510;47.942;9.442;2023-02-20T05:39:15;95621.81;;;2.12;100.00
11487;BME280;10510;47.942;9.442;2023-02-20T05:41:15;95615.19;;;2.08;100.00
11487;BME280;10510;47.942;9.442;2023-02-20T05:43:16;95618.22;;;2.02;100.00
11487;BME280;10510;47.942;9.442;2023-02-20T05:45:17;95628.75;;;1.99;100.00
11487;BME280;10510;47.942;9.442;2023-02-20T05:47:18;95624.63;;;1.96;100.00
11487;BME280;10510;47.942;9.442;2023-02-20T05:49:18;95631.53;;;1.96;100.00
11487;BME280;10510;47.942;9.442;2023-02-20T05:51:24;95634.09;;;1.96;100.00
11487;BME280;10510;47.942;9.442;2023-02-20T05:53:29;95633.16;;;1.97;100.00
11487;BME280;10510;47.942;9.442;2023-02-20T05:55:29;95623.69;;;1.97;100.00
11487;BME280;10510;47.942;9.442;2023-02-20T05:57:30;95628.75;;;1.99;100.00
11487;BME280;10510;47.942;9.442;2023-02-20T05:59:30;95632.84;;;2.01;100.00
11487;BME280;10510;47.942;9.442;2023-02-20T06:01:31;95636.25;;;2.02;100.00
11487;BME280;10510;47.942;9.442;2023-02-20T06:03:31;95637.19;;;2.01;100.00
11487;BME280;10510;47.942;9.442;2023-02-20T06:05:31;95637.19;;;2.01;100.00
11487;BME280;10510;47.942;9.442;2023-02-20T06:07:33;95632.03;;;2.01;100.00
11487;BME280;10510;47.942;9.442;2023-02-20T06:09:33;95632.03;;;2.01;100.00
11487;BME280;10510;47.942;9.442;2023-02-20T06:11:33;95637.19;;;2.01;100.00
11487;BME280;10510;47.942;9.442;2023-02-20T06:13:34;95622.63;;;2.00;100.00
11487;BME280;10510;47.942;9.442;2023-02-20T06:15:34;95623.50;;;2.00;100.00
11487;BME280;10510;47.942;9.442;2023-02-20T06:17:34;95628.00;;;1.97;100.00
11487;BME280;10510;47.942;9.442;2023-02-20T06:19:35;95629.97;;;1.93;100.00
11487;BME280;10510;47.942;9.442;2023-02-20T06:21:35;95634.31;;;1.93;100.00
11487;BME280;10510;47.942;9.442;2023-02-20T06:23:37;95628.44;;;1.91;100.00
11487;BME280;10510;47.942;9.442;2023-02-20T06:25:37;95629.38;;;1.90;100.00
11487;BME280;10510;47.942;9.442;2023-02-20T06:27:38;95627.75;;;1.89;100.00
11487;BME280;10510;47.942;9.442;2023-02-20T06:29:38;95636.38;;;1.88;100.00
11487;BME280;10510;47.942;9.442;2023-02-20T06:31:38;95638.97;;;1.88;100.00
11487;BME280;10510;47.942;9.442;2023-02-20T06:33:39;95638.97;;;1.88;100.00
11487;BME280;10510;47.942;9.442;2023-02-20T06:35:39;95638.06;;;1.89;100.00
11487;BME280;10510;47.942;9.442;2023-02-20T06:37:39;95640.50;;;1.90;100.00
11487;BME280;10510;47.942;9.442;2023-02-20T06:39:39;95646.28;;;1.94;100.00
11487;BME280;10510;47.942;9.442;2023-02-20T06:41:42;95641.03;;;1.95;100.00
11487;BME280;10510;47.942;9.442;2023-02-20T06:43:43;95645.97;;;1.98;100.00
11487;BME280;10510;47.942;9.442;2023-02-20T06:45:43;95648.25;;;2.03;100.00
11487;BME280;10510;47.942;9.442;2023-02-20T06:47:44;95642.88;;;2.06;100.00
11487;BME280;10510;47.942;9.442;2023-02-20T06:49:44;95647.81;;;2.09;100.00
11487;BME280;10510;47.942;9.442;2023-02-20T06:51:44;95644.06;;;2.13;100.00
11487;BME280;10510;47.942;9.442;2023-02-20T06:53:45;95651.38;;;2.19;100.00
11487;BME280;10510;47.942;9.442;2023-02-20T06:55:45;95642.47;;;2.23;100.00
11487;BME280;10510;47.942;9.442;2023-02-20T06:57:46;95636.19;;;2.27;100.00
11487;BME280;10510;47.942;9.442;2023-02-20T06:59:46;95637.84;;;2.28;100.00
11487;BME280;10510;47.942;9.442;2023-02-20T07:01:48;95635.84;;;2.32;100.00
11487;BME280;10510;47.942;9.442;2023-02-20T07:03:49;95636.56;;;2.34;100.00
11487;BME280;10510;47.942;9.442;2023-02-20T07:05:49;95642.34;;;2.38;100.00
11487;BME280;10510;47.942;9.442;2023-02-20T07:07:50;95652.13;;;2.45;100.00
11487;BME280;10510;47.942;9.442;2023-02-20T07:09:50;95652.50;;;2.52;100.00
11487;BME280;10510;47.942;9.442;2023-02-20T07:11:51;95659.72;;;2.60;100.00
11487;BME280;10510;47.942;9.442;2023-02-20T07:13:51;95659.06;;;2.69;100.00
11487;BME280;10510;47.942;9.442;2023-02-20T07:15:52;95655.94;;;2.77;100.00
11487;BME280;10510;47.942;9.442;2023-02-20T07:17:52;95646.78;;;2.84;100.00
11487;BME280;10510;47.942;9.442;2023-02-20T07:19:52;95641.78;;;2.93;100.00
11487;BME280;10510;47.942;9.442;2023-02-20T07:21:52;95639.47;;;3.02;100.00
11487;BME280;10510;47.942;9.442;2023-02-20T07:23:53;95644.06;;;3.09;100.00
11487;BME280;10510;47.942;9.442;2023-02-20T07:25:53;95630.25;;;3.22;100.00
11487;BME280;10510;47.942;9.442;2023-02-20T07:27:53;95633.66;;;3.33;100.00
11487;BME280;10510;47.942;9.442;2023-02-20T07:29:53;95637.09;;;3.45;100.00
11487;BME280;10510;47.942;9.442;2023-02-20T07:31:54;95637.13;;;3.56;100.00
11487;BME280;10510;47.942;9.442;2023-02-20T07:33:54;95639.81;;;3.66;100.00
11487;BME280;10510;47.942;9.442;2023-02-20T07:35:54;95641.59;;;3.77;100.00
11487;BME280;10510;47.942;9.442;2023-02-20T07:37:55;95641.56;;;3.88;100.00
11487;BME280;10510;47.942;9.442;2023-02-20T07:39:55;95646.75;;;3.99;100.00
11487;BME280;10510;47.942;9.442;2023-02-20T07:41:55;95644.97;;;4.11;100.00
11487;BME280;10510;47.942;9.442;2023-02-20T07:43:56;95638.03;;;4.23;100.00
11487;BME280;10510;47.942;9.442;2023-02-20T07:45:56;95639.41;;;4.38;100.00
11487;BME280;10510;47.942;9.442;2023-02-20T07:47:56;95645.16;;;4.53;100.00
11487;BME280;10510;47.942;9.442;2023-02-20T07:49:57;95637.94;;;4.68;100.00
11487;BME280;10510;47.942;9.442;2023-02-20T07:51:58;95638.59;;;4.81;100.00
11487;BME280;10510;47.942;9.442;2023-02-20T07:53:58;95635.00;;;4.93;100.00
11487;BME280;10510;47.942;9.442;2023-02-20T07:55:58;95626.91;;;5.08;100.00
11487;BME280;10510;47.942;9.442;2023-02-20T07:57:58;95624.97;;;5.21;100.00
11487;BME280;10510;47.942;9.442;2023-02-20T07:59:59;95625.84;;;5.31;100.00
11487;BME280;10510;47.942;9.442;2023-02-20T08:01:59;95634.53;;;5.41;100.00
11487;BME280;10510;47.942;9.442;2023-02-20T08:03:59;95635.28;;;5.53;100.00
11487;BME280;10510;47.942;9.442;2023-02-20T08:06:00;95634.81;;;5.69;100.00
11487;BME280;10510;47.942;9.442;2023-02-20T08:08:00;95630.78;;;5.86;100.00
11487;BME280;10510;47.942;9.442;2023-02-20T08:10:00;95626.50;;;6.06;100.00
11487;BME280;10510;47.942;9.442;2023-02-20T08:12:00;95623.34;;;6.33;100.00
11487;BME280;10510;47.942;9.442;2023-02-20T08:14:02;95621.34;;;6.66;100.00
11487;BME280;10510;47.942;9.442;2023-02-20T08:16:03;95617.09;;;6.94;100.00
11487;BME280;10510;47.942;9.442;2023-02-20T08:18:03;95625.28;;;7.09;100.00
11487;BME280;10510;47.942;9.442;2023-02-20T08:20:04;95625.72;;;7.14;100.00
11487;BME280;10510;47.942;9.442;2023-02-20T08:22:05;95623.66;;;7.17;100.00
11487;BME280;10510;47.942;9.442;2023-02-20T08:24:06;95616.41;;;7.21;100.00
11487;BME280;10510;47.942;9.442;2023-02-20T08:26:07;95610.22;;;7.32;100.00
11487;BME280;10510;47.942;9.442;2023-02-20T08:28:07;95606.78;;;7.50;100.00
11487;BME280;10510;47.942;9.442;2023-02-20T08:30:11;95603.97;;;7.71;100.00
11487;BME280;10510;47.942;9.442;2023-02-20T08:32:12;95606.94;;;7.86;100.00
11487;BME280;10510;47.942;9.442;2023-02-20T08:34:12;95610.59;;;7.93;100.00
11487;BME280;10510;47.942;9.442;2023-02-20T08:36:12;95613.88;;;7.95;100.00
11487;BME280;10510;47.942;9.442;2023-02-20T08:38:37;95608.00;;;7.93;100.00
11487;BME280;10510;47.942;9.442;2023-02-20T08:40:37;95609.59;;;8.04;100.00
11487;BME280;10510;47.942;9.442;2023-02-20T08:42:38;95608.63;;;8.05;100.00
11487;BME280;10510;47.942;9.442;2023-02-20T08:44:39;95607.19;;;8.20;100.00
11487;BME280;10510;47.942;9.442;2023-02-20T08:46:47;95609.97;;;8.37;100.00
11487;BME280;10510;47.942;9.442;2023-02-20T08:48:47;95598.28;;;8.69;100.00
11487;BME280;10510;47.942;9.442;2023-02-20T08:50:47;95593.28;;;8.93;100.00
11487;BME280;10510;47.942;9.442;2023-02-20T08:52:48;95593.84;;;9.23;100.00
11487;BME280;10510;47.942;9.442;2023-02-20T08:54:48;95588.53;;;9.50;100.00
11487;BME280;10510;47.942;9.442;2023-02-20T08:56:48;95589.94;;;9.71;100.00
11487;BME280;10510;47.942;9.442;2023-02-20T08:58:49;95592.81;;;9.94;100.00
11487;BME280;10510;47.942;9.442;2023-02-20T09:00:50;95584.63;;;10.23;100.00
11487;BME280;10510;47.942;9.442;2023-02-20T09:02:51;95580.19;;;10.58;100.00
11487;BME280;10510;47.942;9.442;2023-02-20T09:04:51;95585.44;;;10.82;100.00
11487;BME280;10510;47.942;9.442;2023-02-20T09:06:51;95580.91;;;11.01;100.00
11487;BME280;10510;47.942;9.442;2023-02-20T09:08:51;95572.88;;;11.02;100.00
11487;BME280;10510;47.942;9.442;2023-02-20T09:10:52;95571.41;;;11.08;100.00
11487;BME280;10510;47.942;9.442;2023-02-20T09:12:52;95576.00;;;11.22;100.00
11487;BME280;10510;47.942;9.442;2023-02-20T09:14:52;95573.84;;;11.50;100.00
11487;BME280;10510;47.942;9.442;2023-02-20T09:16:53;95577.53;;;11.80;100.00
11487;BME280;10510;47.942;9.442;2023-02-20T09:18:53;95574.06;;;12.04;100.00
11487;BME280;10510;47.942;9.442;2023-02-20T09:20:55;95573.00;;;12.22;100.00
11487;BME280;10510;47.942;9.442;2023-02-20T09:22:57;95571.13;;;12.39;100.00
11487;BME280;10510;47.942;9.442;2023-02-20T09:24:58;95573.09;;;12.37;100.00
11487;BME280;10510;47.942;9.442;2023-02-20T09:26:59;95570.94;;;12.40;100.00
11487;BME280;10510;47.942;9.442;2023-02-20T09:29:00;95578.88;;;12.55;100.00
11487;BME280;10510;47.942;9.442;2023-02-20T09:31:01;95563.66;;;12.82;100.00
11487;BME280;10510;47.942;9.442;2023-02-20T09:33:01;95564.81;;;13.02;100.00
11487;BME280;10510;47.942;9.442;2023-02-20T09:35:01;95553.59;;;13.08;100.00
11487;BME280;10510;47.942;9.442;2023-02-20T09:37:02;95552.16;;;13.29;100.00
11487;BME280;10510;47.942;9.442;2023-02-20T09:39:03;95546.06;;;13.51;100.00
11487;BME280;10510;47.942;9.442;2023-02-20T09:41:04;95553.22;;;13.57;100.00
11487;BME280;10510;47.942;9.442;2023-02-20T09:45:20;95549.06;;;13.78;100.00
11487;BME280;10510;47.942;9.442;2023-02-20T09:49:46;95550.31;;;13.82;100.00
11487;BME280;10510;47.942;9.442;2023-02-20T09:51:52;95546.34;;;13.86;100.00
11487;BME280;10510;47.942;9.442;2023-02-20T09:54:27;95550.31;;;13.97;100.00
11487;BME280;10510;47.942;9.442;2023-02-20T09:56:32;95549.06;;;13.93;100.00
11487;BME280;10510;47.942;9.442;2023-02-20T09:58:42;95546.16;;;13.73;100.00
11487;BME280;10510;47.942;9.442;2023-02-20T10:00:43;95545.91;;;13.82;100.00
11487;BME280;10510;47.942;9.442;2023-02-20T10:02:53;95550.59;;;14.02;100.00
11487;BME280;10510;47.942;9.442;2023-02-20T10:04:57;95549.13;;;14.14;100.00
11487;BME280;10510;47.942;9.442;2023-02-20T10:07:31;95542.16;;;14.21;100.00
11487;BME280;10510;47.942;9.442;2023-02-20T10:09:31;95539.31;;;14.23;100.00
11487;BME280;10510;47.942;9.442;2023-02-20T10:11:41;95539.31;;;14.23;100.00
11487;BME280;10510;47.942;9.442;2023-02-20T10:13:56;95541.84;;;14.31;100.00
11487;BME280;10510;47.942;9.442;2023-02-20T10:18:33;95542.00;;;14.59;100.00
11487;BME280;10510;47.942;9.442;2023-02-20T10:23:15;95534.69;;;14.76;100.00
11487;BME280;10510;47.942;9.442;2023-02-20T10:25:24;95534.69;;;14.76;100.00
11487;BME280;10510;47.942;9.442;2023-02-20T10:29:49;95532.47;;;14.58;100.00
11487;BME280;10510;47.942;9.442;2023-02-20T10:32:00;95540.56;;;14.57;100.00
11487;BME280;10510;47.942;9.442;2023-02-20T10:34:14;95526.63;;;14.41;100.00
11487;BME280;10510;47.942;9.442;2023-02-20T10:36:26;95527.50;;;14.48;100.00
11487;BME280;10510;47.942;9.442;2023-02-20T10:38:36;95522.16;;;14.57;100.00
11487;BME280;10510;47.942;9.442;2023-02-20T10:40:47;95519.53;;;14.42;100.00
11487;BME280;10510;47.942;9.442;2023-02-20T10:43:24;95512.84;;;14.39;100.00
11487;BME280;10510;47.942;9.442;2023-02-20T10:45:53;95509.56;;;14.52;100.00
11487;BME280;10510;47.942;9.442;2023-02-20T10:48:06;95507.47;;;14.47;100.00
11487;BME280;10510;47.942;9.442;2023-02-20T10:50:22;95508.63;;;14.60;100.00
11487;BME280;10510;47.942;9.442;2023-02-20T10:52:48;95503.06;;;14.69;100.00
11487;BME280;10510;47.942;9.442;2023-02-20T10:54:54;95490.34;;;14.94;100.00
11487;BME280;10510;47.942;9.442;2023-02-20T10:56:59;95492.22;;;15.29;100.00
11487;BME280;10510;47.942;9.442;2023-02-20T10:59:07;95489.34;;;15.52;100.00
11487;BME280;10510;47.942;9.442;2023-02-20T11:01:18;95494.06;;;15.63;100.00
11487;BME280;10510;47.942;9.442;2023-02-20T11:05:50;95483.97;;;16.08;100.00
11487;BME280;10510;47.942;9.442;2023-02-20T11:07:52;95483.81;;;16.16;100.00
11487;BME280;10510;47.942;9.442;2023-02-20T11:09:52;95484.78;;;16.08;100.00
11487;BME280;10510;47.942;9.442;2023-02-20T11:11:54;95487.00;;;16.05;100.00
11487;BME280;10510;47.942;9.442;2023-02-20T11:13:57;95481.47;;;15.93;100.00
11487;BME280;10510;47.942;9.442;2023-02-20T11:15:58;95488.41;;;16.01;100.00
11487;BME280;10510;47.942;9.442;2023-02-20T11:17:59;95473.00;;;15.98;100.00
11487;BME280;10510;47.942;9.442;2023-02-20T11:20:01;95474.34;;;15.87;100.00
11487;BME280;10510;47.942;9.442;2023-02-20T11:22:03;95472.91;;;15.84;100.00
11487;BME280;10510;47.942;9.442;2023-02-20T11:26:29;95469.34;;;15.99;100.00
11487;BME280;10510;47.942;9.442;2023-02-20T11:28:31;95462.31;;;16.19;100.00
11487;BME280;10510;47.942;9.442;2023-02-20T11:30:34;95459.66;;;16.12;100.00
11487;BME280;10510;47.942;9.442;2023-02-20T11:32:37;95450.56;;;16.15;100.00
11487;BME280;10510;47.942;9.442;2023-02-20T11:34:38;95452.41;;;16.28;100.00
11487;BME280;10510;47.942;9.442;2023-02-20T11:36:42;95456.25;;;16.32;100.00
11487;BME280;10510;47.942;9.442;2023-02-20T11:38:44;95452.81;;;16.38;100.00